AirNav   $300 off a Bose A20 aviation headset
 
 1403 users online  

AL17 Lazy Eight Airpark LLC
Wilsonville, Alabama, USA

GOING TO WILSONVILLE?


FAA INFORMATION EFFECTIVE 28 FEBRUARY 2019

Location

FAA Identifier: AL17
Lat/Long: 33-14-02.4110N / 086-30-46.9320W
33-14.040183N / 086-30.782200W
33.2340031 / -86.5130367
(estimated)
Elevation: 450 ft. / 137 m (estimated)
Variation: 00W (1985)
From city: 2 miles SW of WILSONVILLE, AL
Time zone: UTC -6 (UTC -5 during Daylight Saving Time)
Zip code: 35186

Airport Operations

Airport use: Private use. Permission required prior to landing
Activation date: 10/1977
Control tower: no
ARTCC: ATLANTA CENTER
FSS: ANNISTON FLIGHT SERVICE STATION
Attendance: UNATNDD
Wind indicator: yes
Segmented circle: no

Airport Communications

WX AWOS-3PT at SCD (11 nm E): 119.125 (256-249-2620)
WX ASOS at EET (14 nm W): 134.325 (205-663-5881)

Nearby radio navigation aids

VOR radial/distance  VOR name  Freq  Var
TDGr227/31.2TALLADEGA VOR/DME108.8002E
VUZr141/32.6VULCAN VORTAC114.4002E
OKWr090/37.0BROOKWOOD VORTAC111.0000E

Airport Services

Runway Information

Runway 15/33

Dimensions: 3000 x 60 ft. / 914 x 18 m
Surface: turf
RUNWAY 15  RUNWAY 33
Traffic pattern: leftleft
Displaced threshold: 956 ft.1001 ft.
Markings: basicbasic
Obstructions: 41 ft. tree, 143 ft. from runway36 ft. pline, 63 ft. from runway

Airport Ownership and Management from official FAA records

Ownership: Privately-owned
Owner: LAZY EIGHT AIRPARK
444 AIRPARK DR
WILSONVILLE, AL 35186
Phone (205) 405-8005
Manager: WILLIAM GLENN
444 AIR PARK DRIVE
WILSONVILLE, AL 35186
Phone (205) 405-8005

Airport Operational Statistics

Aircraft based on the field: 9
Single engine airplanes: 9
    

Instrument Procedures

There are no published instrument procedures at AL17.

Some nearby airports with instrument procedures:

KSCD - Merkel Field Sylacauga Municipal Airport (11 nm E)
KEET - Shelby County Airport (14 nm W)
KEKY - Bessemer Airport (21 nm W)
KBHM - Birmingham-Shuttlesworth International Airport (23 nm NW)
02A - Chilton County Airport (24 nm S)
 
Loc | Ops | Rwys | IFR | FBO | Links
Com | Nav | Svcs | Stats | Notes
Area around AL17 (Lazy Eight Airpark LLC)
 
Road maps at: MapQuest Bing Google
 
Aerial photo
No photo
 
Sectional chart

 
Airport distance calculator
Flying to Lazy Eight Airpark LLC? Find the distance to fly.

From to AL17

Sunrise and sunset
Times for 22-Mar-2019
 Local
(UTC-5)
 Zulu
(UTC)
Morning civil twilight06:2311:23
Sunrise06:4811:48
Sunset18:5823:58
Evening civil twilight19:2300:23

Current date and time
Zulu (UTC)  22-Mar-2019 14:55:47
Local (UTC-5)  22-Mar-2019 09:55:47
 
METAR
KSCD 
11nm E 
221435Z AUTO 34007KT 10SM OVC110 09/00 A3017 RMK AO2 T00901001
KEET 
14nm W 
221353Z AUTO 32006KT 10SM CLR 08/01 A3017 RMK AO2 SLP215 T00830011
KEKY 
21nm W 
221356Z AUTO 32007KT 10SM CLR 08/01 A3018 RMK AO2 SLP241 T00780011
TAF
KEET 
14nm W 
221120Z 2212/2312 32004KT P6SM SKC FM221500 30008G15KT P6SM SKC FM230100 00000KT P6SM SKC
NOTAMs
Click for the latest NOTAMs
NOTAMs are issued by the DoD/FAA and will open in a separate window not controlled by AirNav.

 

 
 

Would you like to see your business listed on this page?

 If your business provides an interesting product or service to pilots, flight crews, aircraft, or users of the Lazy Eight Airpark LLC, you should consider listing it here.  To start the listing process, click on the button below
 
Add a business
 

Other Pages about Lazy Eight Airpark LLC

Update a link
 
Copyright © AirNav, LLC. All rights reserved. Privacy Policy  Contact